LIC0229 LEMI-LEBA
Flight info
| Callsign | LIC0229 |
|---|---|
| Flight time | 0h 54m |
| Altitude | 27000 |
| Route | DINCO L112 AMR/N0428F320 M192 BLN N747 ALCOL |
| Aircraft | B738/M-SDE2E3FGHIRWXY/LB1 |
Departure
| Time | 2026-05-06 16:52 |
|---|---|
| Airport | Region of Murcia International Airport (LEMI) |
Arrival
| Time | 2026-05-06 17:47 |
|---|---|
| Airport | Córdoba Airport (LEBA) |
| Time | Latitude | Longitude | Altitude | Speed | Heading |
|---|---|---|---|---|---|
| 2026-05-06 16:30 | 37.80383 | -1.13095 | 651 ft | 0 kts | 315° |
| 2026-05-06 16:43 | 37.80369 | -1.13077 | 653 ft | 4 kts | 311° |
| 2026-05-06 16:43 | 37.80352 | -1.13051 | 652 ft | 4 kts | 303° |
| 2026-05-06 16:44 | 37.80340 | -1.13021 | 653 ft | 4 kts | 282° |
| 2026-05-06 16:44 | 37.80342 | -1.12994 | 654 ft | 2 kts | 227° |
| 2026-05-06 16:44 | 37.80343 | -1.12992 | 654 ft | 1 kts | 225° |
| 2026-05-06 16:46 | 37.80339 | -1.12997 | 654 ft | 2 kts | 225° |
| 2026-05-06 16:47 | 37.80314 | -1.13029 | 652 ft | 8 kts | 225° |
| 2026-05-06 16:47 | 37.80258 | -1.13102 | 651 ft | 15 kts | 225° |
| 2026-05-06 16:47 | 37.80206 | -1.13159 | 651 ft | 4 kts | 202° |
| 2026-05-06 16:47 | 37.80168 | -1.13150 | 652 ft | 8 kts | 147° |
| 2026-05-06 16:48 | 37.80127 | -1.13093 | 651 ft | 11 kts | 131° |
| 2026-05-06 16:48 | 37.80086 | -1.13080 | 651 ft | 6 kts | 199° |
| 2026-05-06 16:48 | 37.80050 | -1.13120 | 651 ft | 9 kts | 223° |
| 2026-05-06 16:48 | 37.79990 | -1.13193 | 651 ft | 14 kts | 227° |
| 2026-05-06 16:49 | 37.79909 | -1.13300 | 651 ft | 19 kts | 226° |
| 2026-05-06 16:49 | 37.79805 | -1.13436 | 651 ft | 21 kts | 226° |
| 2026-05-06 16:49 | 37.79707 | -1.13559 | 651 ft | 21 kts | 225° |
| 2026-05-06 16:49 | 37.79599 | -1.13698 | 651 ft | 22 kts | 224° |
| 2026-05-06 16:50 | 37.79521 | -1.13783 | 651 ft | 6 kts | 195° |
| 2026-05-06 16:50 | 37.79485 | -1.13765 | 652 ft | 6 kts | 134° |
| 2026-05-06 16:50 | 37.79456 | -1.13725 | 651 ft | 6 kts | 134° |
| 2026-05-06 16:50 | 37.79420 | -1.13679 | 650 ft | 9 kts | 131° |
| 2026-05-06 16:51 | 37.79428 | -1.13603 | 650 ft | 10 kts | 50° |
| 2026-05-06 16:51 | 37.79447 | -1.13582 | 649 ft | 0 kts | 43° |
| 2026-05-06 16:51 | 37.79588 | -1.13402 | 651 ft | 66 kts | 45° |
| 2026-05-06 16:51 | 37.80076 | -1.12772 | 650 ft | 131 kts | 42° |
| 2026-05-06 16:52 | 37.80788 | -1.11891 | 1112 ft | 147 kts | 48° |
| 2026-05-06 16:52 | 37.81572 | -1.10927 | 1623 ft | 173 kts | 49° |
| 2026-05-06 16:52 | 37.82480 | -1.09800 | 2154 ft | 183 kts | 47° |
| 2026-05-06 16:52 | 37.83401 | -1.08679 | 2897 ft | 192 kts | 46° |
| 2026-05-06 16:53 | 37.84432 | -1.07424 | 3235 ft | 218 kts | 45° |
| 2026-05-06 16:53 | 37.85587 | -1.06023 | 3454 ft | 241 kts | 44° |
| 2026-05-06 16:53 | 37.86824 | -1.04528 | 3902 ft | 250 kts | 44° |
| 2026-05-06 16:53 | 37.88115 | -1.02969 | 4383 ft | 261 kts | 42° |
| 2026-05-06 16:54 | 37.89446 | -1.01361 | 5155 ft | 264 kts | 41° |
| 2026-05-06 16:54 | 37.90790 | -0.99737 | 5972 ft | 271 kts | 40° |
| 2026-05-06 16:54 | 37.92166 | -0.98072 | 6801 ft | 274 kts | 40° |
| 2026-05-06 16:54 | 37.93587 | -0.96452 | 7627 ft | 276 kts | 29° |
| 2026-05-06 16:55 | 37.95364 | -0.95666 | 8441 ft | 270 kts | 359° |
| 2026-05-06 16:55 | 37.97167 | -0.96035 | 9298 ft | 266 kts | 332° |
| 2026-05-06 16:55 | 37.98638 | -0.97377 | 10205 ft | 260 kts | 307° |
| 2026-05-06 16:55 | 37.99491 | -0.99367 | 11092 ft | 258 kts | 283° |
| 2026-05-06 16:56 | 37.99580 | -1.01611 | 12056 ft | 257 kts | 259° |
| 2026-05-06 16:56 | 37.98892 | -1.03694 | 13046 ft | 261 kts | 237° |
| 2026-05-06 16:56 | 37.97531 | -1.05262 | 14019 ft | 272 kts | 215° |
| 2026-05-06 16:56 | 37.95746 | -1.06175 | 14929 ft | 281 kts | 204° |
| 2026-05-06 16:57 | 37.93864 | -1.06899 | 15813 ft | 285 kts | 202° |
| 2026-05-06 16:57 | 37.91947 | -1.07604 | 16719 ft | 289 kts | 202° |
| 2026-05-06 16:57 | 37.90009 | -1.08323 | 17592 ft | 292 kts | 202° |
| 2026-05-06 16:57 | 37.88047 | -1.09062 | 18455 ft | 295 kts | 202° |
| 2026-05-06 16:58 | 37.86073 | -1.09818 | 19228 ft | 298 kts | 203° |
| 2026-05-06 16:58 | 37.84080 | -1.10587 | 20003 ft | 301 kts | 203° |
| 2026-05-06 16:58 | 37.82072 | -1.11363 | 20767 ft | 304 kts | 203° |
| 2026-05-06 16:58 | 37.80038 | -1.12146 | 21525 ft | 308 kts | 202° |
| 2026-05-06 16:59 | 37.77906 | -1.12874 | 21885 ft | 327 kts | 200° |
| 2026-05-06 16:59 | 37.75628 | -1.13583 | 22157 ft | 347 kts | 199° |
| 2026-05-06 16:59 | 37.73228 | -1.14309 | 22488 ft | 362 kts | 199° |
| 2026-05-06 16:59 | 37.70744 | -1.15054 | 22981 ft | 371 kts | 199° |
| 2026-05-06 17:00 | 37.68246 | -1.15803 | 23582 ft | 376 kts | 199° |
| 2026-05-06 17:00 | 37.65700 | -1.16570 | 24238 ft | 375 kts | 199° |
| 2026-05-06 17:00 | 37.63176 | -1.17332 | 25049 ft | 371 kts | 200° |
| 2026-05-06 17:00 | 37.60682 | -1.18089 | 25863 ft | 366 kts | 200° |
| 2026-05-06 17:01 | 37.58215 | -1.18841 | 26530 ft | 364 kts | 200° |
| 2026-05-06 17:01 | 37.55746 | -1.19598 | 26865 ft | 365 kts | 200° |
| 2026-05-06 17:01 | 37.53268 | -1.20358 | 26900 ft | 367 kts | 200° |
| 2026-05-06 17:01 | 37.50794 | -1.21116 | 26895 ft | 365 kts | 200° |
| 2026-05-06 17:02 | 37.48326 | -1.21871 | 26903 ft | 365 kts | 200° |
| 2026-05-06 17:02 | 37.45856 | -1.22627 | 26891 ft | 365 kts | 200° |
| 2026-05-06 17:02 | 37.43392 | -1.23380 | 26899 ft | 366 kts | 200° |
| 2026-05-06 17:02 | 37.40918 | -1.24135 | 26902 ft | 366 kts | 200° |
| 2026-05-06 17:03 | 37.38439 | -1.24892 | 26897 ft | 366 kts | 200° |
| 2026-05-06 17:03 | 37.35958 | -1.25648 | 26902 ft | 367 kts | 200° |
| 2026-05-06 17:03 | 37.33510 | -1.26394 | 26898 ft | 367 kts | 200° |
| 2026-05-06 17:03 | 37.30994 | -1.27159 | 26889 ft | 367 kts | 200° |
| 2026-05-06 17:04 | 37.28550 | -1.27930 | 26885 ft | 364 kts | 205° |
| 2026-05-06 17:04 | 37.26350 | -1.29351 | 26903 ft | 352 kts | 221° |
| 2026-05-06 17:04 | 37.24577 | -1.31415 | 26887 ft | 346 kts | 235° |
| 2026-05-06 17:04 | 37.23275 | -1.33930 | 26897 ft | 343 kts | 242° |
| 2026-05-06 17:05 | 37.22133 | -1.36555 | 26893 ft | 344 kts | 244° |
| 2026-05-06 17:05 | 37.21019 | -1.39218 | 26893 ft | 344 kts | 244° |
| 2026-05-06 17:05 | 37.19911 | -1.41877 | 26892 ft | 346 kts | 244° |
| 2026-05-06 17:05 | 37.18771 | -1.44585 | 26972 ft | 357 kts | 244° |
| 2026-05-06 17:06 | 37.17577 | -1.47395 | 27146 ft | 369 kts | 243° |
| 2026-05-06 17:06 | 37.16349 | -1.50260 | 27463 ft | 377 kts | 243° |
| 2026-05-06 17:06 | 37.15094 | -1.53170 | 27930 ft | 380 kts | 243° |
| 2026-05-06 17:06 | 37.13837 | -1.56075 | 28602 ft | 378 kts | 243° |
| 2026-05-06 17:07 | 37.12603 | -1.58921 | 29369 ft | 374 kts | 243° |
| 2026-05-06 17:07 | 37.11370 | -1.61763 | 30107 ft | 370 kts | 243° |
| 2026-05-06 17:07 | 37.10145 | -1.64587 | 30679 ft | 368 kts | 243° |
| 2026-05-06 17:07 | 37.08925 | -1.67399 | 31213 ft | 367 kts | 243° |
| 2026-05-06 17:08 | 37.07707 | -1.70202 | 31747 ft | 365 kts | 243° |
| 2026-05-06 17:08 | 37.06488 | -1.73004 | 31870 ft | 368 kts | 243° |
| 2026-05-06 17:08 | 37.05263 | -1.75817 | 31889 ft | 367 kts | 243° |
| 2026-05-06 17:09 | 37.02828 | -1.81402 | 31891 ft | 365 kts | 243° |
| 2026-05-06 17:09 | 37.00389 | -1.86990 | 31899 ft | 366 kts | 243° |
| 2026-05-06 17:10 | 36.97950 | -1.92571 | 31890 ft | 366 kts | 243° |
| 2026-05-06 17:10 | 36.95501 | -1.98167 | 31891 ft | 367 kts | 242° |
| 2026-05-06 17:11 | 36.93044 | -2.03770 | 31895 ft | 367 kts | 242° |
| 2026-05-06 17:11 | 36.90587 | -2.09365 | 31890 ft | 368 kts | 242° |
| 2026-05-06 17:12 | 36.88141 | -2.14924 | 31887 ft | 368 kts | 242° |
| 2026-05-06 17:12 | 36.86156 | -2.20753 | 31895 ft | 367 kts | 261° |
| 2026-05-06 17:12 | 36.86108 | -2.23950 | 31888 ft | 371 kts | 274° |
| 2026-05-06 17:13 | 36.86714 | -2.27098 | 31885 ft | 377 kts | 286° |
| 2026-05-06 17:13 | 36.87902 | -2.30048 | 31892 ft | 385 kts | 298° |
| 2026-05-06 17:13 | 36.89721 | -2.32554 | 31902 ft | 395 kts | 311° |
| 2026-05-06 17:14 | 36.94001 | -2.36906 | 31894 ft | 397 kts | 315° |
| 2026-05-06 17:14 | 36.98352 | -2.41166 | 31897 ft | 397 kts | 314° |
| 2026-05-06 17:15 | 37.02661 | -2.45476 | 31890 ft | 396 kts | 314° |
| 2026-05-06 17:15 | 37.06940 | -2.49810 | 31902 ft | 395 kts | 313° |
| 2026-05-06 17:16 | 37.11202 | -2.54143 | 31915 ft | 394 kts | 313° |
| 2026-05-06 17:16 | 37.15424 | -2.58441 | 31924 ft | 393 kts | 313° |
| 2026-05-06 17:17 | 37.19668 | -2.62766 | 31924 ft | 393 kts | 313° |
| 2026-05-06 17:17 | 37.23904 | -2.67116 | 31927 ft | 392 kts | 313° |
| 2026-05-06 17:18 | 37.28116 | -2.71458 | 31926 ft | 392 kts | 313° |
| 2026-05-06 17:18 | 37.32333 | -2.75813 | 31897 ft | 392 kts | 313° |
| 2026-05-06 17:19 | 37.36539 | -2.80159 | 31899 ft | 392 kts | 313° |
| 2026-05-06 17:19 | 37.40748 | -2.84514 | 31905 ft | 392 kts | 313° |
| 2026-05-06 17:20 | 37.44970 | -2.88884 | 31889 ft | 393 kts | 313° |
| 2026-05-06 17:20 | 37.49203 | -2.93266 | 31880 ft | 394 kts | 313° |
| 2026-05-06 17:21 | 37.53435 | -2.97655 | 31874 ft | 394 kts | 313° |
| 2026-05-06 17:21 | 37.57661 | -3.02044 | 31868 ft | 393 kts | 312° |
| 2026-05-06 17:22 | 37.61852 | -3.06413 | 31872 ft | 393 kts | 312° |
| 2026-05-06 17:22 | 37.66061 | -3.10812 | 31875 ft | 393 kts | 312° |
| 2026-05-06 17:23 | 37.70263 | -3.15210 | 31871 ft | 392 kts | 312° |
| 2026-05-06 17:23 | 37.74464 | -3.19611 | 31869 ft | 392 kts | 312° |
| 2026-05-06 17:24 | 37.78664 | -3.23991 | 31869 ft | 391 kts | 312° |
| 2026-05-06 17:24 | 37.80762 | -3.26181 | 31598 ft | 394 kts | 312° |
| 2026-05-06 17:24 | 37.82870 | -3.28383 | 31110 ft | 391 kts | 312° |
| 2026-05-06 17:24 | 37.84961 | -3.30568 | 30649 ft | 388 kts | 312° |
| 2026-05-06 17:25 | 37.87031 | -3.32730 | 30212 ft | 385 kts | 312° |
| 2026-05-06 17:25 | 37.89084 | -3.34879 | 29739 ft | 381 kts | 312° |
| 2026-05-06 17:25 | 37.91120 | -3.37013 | 29239 ft | 377 kts | 313° |
| 2026-05-06 17:25 | 37.93128 | -3.39118 | 28779 ft | 373 kts | 313° |
| 2026-05-06 17:26 | 37.95113 | -3.41203 | 28331 ft | 369 kts | 313° |
| 2026-05-06 17:26 | 37.97081 | -3.43271 | 27877 ft | 365 kts | 313° |
| 2026-05-06 17:26 | 37.99020 | -3.45312 | 27418 ft | 361 kts | 313° |
| 2026-05-06 17:26 | 38.00948 | -3.47342 | 26971 ft | 358 kts | 313° |
| 2026-05-06 17:27 | 38.02857 | -3.49354 | 26542 ft | 355 kts | 313° |
| 2026-05-06 17:27 | 38.04748 | -3.51349 | 26116 ft | 353 kts | 314° |
| 2026-05-06 17:27 | 38.06632 | -3.53337 | 25687 ft | 350 kts | 314° |
| 2026-05-06 17:27 | 38.08502 | -3.55310 | 25255 ft | 348 kts | 314° |
| 2026-05-06 17:28 | 38.10334 | -3.57245 | 24847 ft | 346 kts | 314° |
| 2026-05-06 17:28 | 38.12108 | -3.59282 | 24406 ft | 339 kts | 304° |
| 2026-05-06 17:28 | 38.13260 | -3.61815 | 24004 ft | 328 kts | 286° |
| 2026-05-06 17:28 | 38.13722 | -3.64622 | 23454 ft | 327 kts | 272° |
| 2026-05-06 17:29 | 38.13584 | -3.67519 | 22693 ft | 331 kts | 257° |
| 2026-05-06 17:29 | 38.12860 | -3.70302 | 22121 ft | 332 kts | 250° |
| 2026-05-06 17:29 | 38.11983 | -3.73013 | 21614 ft | 331 kts | 248° |
| 2026-05-06 17:29 | 38.11075 | -3.75688 | 21163 ft | 328 kts | 248° |
| 2026-05-06 17:30 | 38.10173 | -3.78330 | 20730 ft | 325 kts | 248° |
| 2026-05-06 17:30 | 38.09284 | -3.80954 | 20315 ft | 322 kts | 248° |
| 2026-05-06 17:30 | 38.08408 | -3.83565 | 19922 ft | 321 kts | 246° |
| 2026-05-06 17:30 | 38.07831 | -3.85293 | 19636 ft | 321 kts | 246° |
| 2026-05-06 17:31 | 38.06966 | -3.87895 | 19221 ft | 319 kts | 246° |
| 2026-05-06 17:31 | 38.06107 | -3.90484 | 18817 ft | 318 kts | 246° |
| 2026-05-06 17:31 | 38.05252 | -3.93063 | 18409 ft | 317 kts | 246° |
| 2026-05-06 17:31 | 38.04399 | -3.95643 | 17954 ft | 317 kts | 246° |
| 2026-05-06 17:32 | 38.03544 | -3.98222 | 17485 ft | 316 kts | 246° |
| 2026-05-06 17:32 | 38.02696 | -4.00783 | 17080 ft | 314 kts | 246° |
| 2026-05-06 17:32 | 38.01853 | -4.03327 | 16665 ft | 312 kts | 246° |
| 2026-05-06 17:32 | 38.01015 | -4.05855 | 16274 ft | 309 kts | 246° |
| 2026-05-06 17:33 | 38.00184 | -4.08358 | 15870 ft | 308 kts | 246° |
| 2026-05-06 17:33 | 37.99354 | -4.10856 | 15484 ft | 306 kts | 246° |
| 2026-05-06 17:33 | 37.98527 | -4.13342 | 15091 ft | 305 kts | 246° |
| 2026-05-06 17:33 | 37.97705 | -4.15814 | 14704 ft | 304 kts | 246° |
| 2026-05-06 17:34 | 37.96883 | -4.18282 | 14313 ft | 303 kts | 246° |
| 2026-05-06 17:34 | 37.96062 | -4.20746 | 13919 ft | 303 kts | 246° |
| 2026-05-06 17:34 | 37.95241 | -4.23206 | 13500 ft | 303 kts | 246° |
| 2026-05-06 17:34 | 37.94422 | -4.25658 | 13070 ft | 302 kts | 246° |
| 2026-05-06 17:35 | 37.93603 | -4.28109 | 12652 ft | 301 kts | 246° |
| 2026-05-06 17:35 | 37.92789 | -4.30542 | 12260 ft | 300 kts | 246° |
| 2026-05-06 17:35 | 37.91977 | -4.32970 | 11862 ft | 299 kts | 246° |
| 2026-05-06 17:36 | 37.90372 | -4.37759 | 11091 ft | 296 kts | 246° |
| 2026-05-06 17:36 | 37.89569 | -4.40154 | 10706 ft | 295 kts | 246° |
| 2026-05-06 17:36 | 37.88768 | -4.42544 | 10338 ft | 294 kts | 248° |
| 2026-05-06 17:36 | 37.88389 | -4.45056 | 9873 ft | 297 kts | 275° |
| 2026-05-06 17:37 | 37.89048 | -4.47470 | 9790 ft | 285 kts | 302° |
| 2026-05-06 17:37 | 37.90366 | -4.49321 | 9220 ft | 291 kts | 325° |
| 2026-05-06 17:37 | 37.92204 | -4.50373 | 8763 ft | 293 kts | 347° |
| 2026-05-06 17:37 | 37.94236 | -4.50492 | 8375 ft | 293 kts | 6° |
| 2026-05-06 17:38 | 37.96238 | -4.50148 | 7989 ft | 287 kts | 8° |
| 2026-05-06 17:38 | 37.98186 | -4.49778 | 7624 ft | 278 kts | 8° |
| 2026-05-06 17:38 | 38.00077 | -4.49537 | 7271 ft | 270 kts | 354° |
| 2026-05-06 17:38 | 38.01811 | -4.50274 | 6954 ft | 262 kts | 326° |
| 2026-05-06 17:39 | 38.03123 | -4.51844 | 6653 ft | 260 kts | 306° |
| 2026-05-06 17:39 | 38.04165 | -4.53708 | 6334 ft | 259 kts | 303° |
| 2026-05-06 17:39 | 38.05185 | -4.55582 | 6100 ft | 257 kts | 303° |
| 2026-05-06 17:39 | 38.06208 | -4.57450 | 5792 ft | 258 kts | 303° |
| 2026-05-06 17:40 | 38.07236 | -4.59314 | 5469 ft | 257 kts | 303° |
| 2026-05-06 17:40 | 38.07924 | -4.61372 | 5130 ft | 254 kts | 276° |
| 2026-05-06 17:40 | 38.07737 | -4.63550 | 4879 ft | 246 kts | 248° |
| 2026-05-06 17:40 | 38.06861 | -4.65337 | 4676 ft | 235 kts | 225° |
| 2026-05-06 17:41 | 38.05639 | -4.66658 | 4484 ft | 227 kts | 217° |
| 2026-05-06 17:41 | 38.04390 | -4.67840 | 4261 ft | 220 kts | 217° |
| 2026-05-06 17:41 | 38.03194 | -4.68965 | 4099 ft | 214 kts | 218° |
| 2026-05-06 17:41 | 38.02028 | -4.70078 | 3891 ft | 205 kts | 217° |
| 2026-05-06 17:42 | 38.00908 | -4.71104 | 3706 ft | 193 kts | 213° |
| 2026-05-06 17:42 | 37.99818 | -4.72023 | 3527 ft | 184 kts | 213° |
| 2026-05-06 17:42 | 37.98760 | -4.72911 | 3401 ft | 181 kts | 213° |
| 2026-05-06 17:42 | 37.97735 | -4.73772 | 3251 ft | 173 kts | 214° |
| 2026-05-06 17:43 | 37.96765 | -4.74589 | 3097 ft | 166 kts | 214° |
| 2026-05-06 17:43 | 37.95830 | -4.75377 | 2880 ft | 159 kts | 213° |
| 2026-05-06 17:43 | 37.94917 | -4.76149 | 2697 ft | 156 kts | 212° |
| 2026-05-06 17:43 | 37.94033 | -4.76892 | 2535 ft | 150 kts | 213° |
| 2026-05-06 17:44 | 37.93190 | -4.77606 | 2349 ft | 140 kts | 213° |
| 2026-05-06 17:44 | 37.92380 | -4.78288 | 2132 ft | 139 kts | 214° |
| 2026-05-06 17:44 | 37.91584 | -4.78961 | 1925 ft | 138 kts | 212° |
| 2026-05-06 17:44 | 37.90787 | -4.79633 | 1730 ft | 137 kts | 212° |
| 2026-05-06 17:45 | 37.89986 | -4.80308 | 1539 ft | 140 kts | 212° |
| 2026-05-06 17:45 | 37.89171 | -4.80996 | 1336 ft | 141 kts | 213° |
| 2026-05-06 17:45 | 37.88358 | -4.81681 | 1142 ft | 140 kts | 213° |
| 2026-05-06 17:45 | 37.87552 | -4.82360 | 942 ft | 139 kts | 213° |
| 2026-05-06 17:46 | 37.86746 | -4.83037 | 742 ft | 140 kts | 213° |
| 2026-05-06 17:46 | 37.85913 | -4.83683 | 555 ft | 141 kts | 210° |
| 2026-05-06 17:46 | 37.85067 | -4.84280 | 345 ft | 137 kts | 210° |
| 2026-05-06 17:46 | 37.84301 | -4.84820 | 302 ft | 105 kts | 208° |
| 2026-05-06 17:47 | 37.83855 | -4.85130 | 303 ft | 42 kts | 209° |
| 2026-05-06 17:47 | 37.83712 | -4.85204 | 307 ft | 15 kts | 175° |
| 2026-05-06 17:47 | 37.83675 | -4.85212 | 305 ft | 2 kts | 237° |
| 2026-05-06 17:47 | 37.83681 | -4.85231 | 308 ft | 2 kts | 316° |
| 2026-05-06 17:48 | 37.83702 | -4.85229 | 306 ft | 5 kts | 14° |
| 2026-05-06 17:48 | 37.83771 | -4.85188 | 307 ft | 17 kts | 28° |
| 2026-05-06 17:48 | 37.83903 | -4.85094 | 302 ft | 22 kts | 28° |
| 2026-05-06 17:48 | 37.84040 | -4.84998 | 302 ft | 24 kts | 29° |
| 2026-05-06 17:49 | 37.84182 | -4.84898 | 303 ft | 23 kts | 30° |
| 2026-05-06 17:49 | 37.84318 | -4.84800 | 303 ft | 22 kts | 28° |
| 2026-05-06 17:49 | 37.84450 | -4.84708 | 305 ft | 21 kts | 29° |
| 2026-05-06 17:49 | 37.84534 | -4.84642 | 303 ft | 5 kts | 57° |
| 2026-05-06 17:50 | 37.84531 | -4.84627 | 303 ft | 3 kts | 111° |
| 2026-05-06 17:50 | 37.84512 | -4.84568 | 304 ft | 11 kts | 115° |
| 2026-05-06 17:50 | 37.84476 | -4.84494 | 306 ft | 9 kts | 116° |
| 2026-05-06 17:50 | 37.84469 | -4.84448 | 305 ft | 3 kts | 64° |
| 2026-05-06 17:51 | 37.84489 | -4.84443 | 306 ft | 3 kts | 341° |
| 2026-05-06 17:51 | 37.84514 | -4.84457 | 303 ft | 6 kts | 356° |
| 2026-05-06 17:51 | 37.84558 | -4.84430 | 304 ft | 2 kts | 45° |
| 2026-05-06 17:51 | 37.84556 | -4.84408 | 305 ft | 3 kts | 121° |
| 2026-05-06 17:52 | 37.84537 | -4.84404 | 305 ft | 4 kts | 188° |
| 2026-05-06 17:52 | 37.84521 | -4.84412 | 304 ft | 0 kts | 205° |